EHBKEHGG

Guest
Details From EHBK - Maastricht
To EHGG - Eelde
Flight Number -
Tags Generated Routegen
Created
Modified
Stats Distance 137 nm / 254 km
Max Altitude 1,500 ft / 457 m
Waypoints 5
Social Downloads 3
Likes 0
Share VATSIM

Download

Looking for another format? Having issues loading an existing format? Contact us
Advertisement - Login to hide

Notes

Departing runway 3 EHBK. Arriving runway 5 EHGG.

Route

EHBK +50.98_+005.84 +51.76_+006.04 +53.03_+006.38 EHGG

ID Type Via Altitude Latitude Longitude Leg Dist Tot Dist Heading (true) Name
O EHBK APT - 1,500 ft / 457 m 50.92077˚ 5.77923˚ - 0 nm - -
+50.98_+005.84 DME - 1,500 ft / 457 m 50.98175˚ 5.84110˚ 4 nm 4 nm 33° / 33° -
+51.76_+006.04 DME - 1,500 ft / 457 m 51.76018˚ 6.04077˚ 47 nm 51 nm 9° / 9° -
+53.03_+006.38 DME - 1,500 ft / 457 m 53.02532˚ 6.38004˚ 76 nm 128 nm 9° / 9° -
O EHGG APT - 0 ft / 0 m 53.11497˚ 6.56915˚ 8 nm 137 nm 52° / 52° -

Altitude Profile

Advertisement - Login to hide

EHBK

Details ICAO EHBK (MST)
Name Maastricht
Region Netherlands
Timezone Europe/Amsterdam (UTC+2.0)
Stats Elevation 375 ft / 114 m (AMSL)
Location 50.911305° 5.769639°
Runways 1
Magnetic Variation 1.577° E

METAR

EHBK 270355Z AUTO 09006KT 9999 NSC 18/15 Q1017 NOSIG

Decode

TAF

TAF EHBK 262242Z 2700/2806 09005KT CAVOK TEMPO 2711/2721 22010G20KT 4000 SHRA SCT060CB PROB30 TEMPO 2713/2717 VRB15G35KT 1400 +TSRAGR BKN005 SCT050CB PROB30 2721/2805 4000 BR MIFG

Decode

Departure Runways

ID Width Length Bearing (true) Bearing (mag) Surface Threshold Offset Overrun Length
03 148 ft / 45 m 8,200 ft / 2,499 m 32.55° 30.97° Asphalt 820 ft / 250 m 0 ft / 0 m
21 148 ft / 45 m 8,200 ft / 2,499 m 212.56° 210.98° Asphalt 820 ft / 250 m 0 ft / 0 m

EHGG

Details ICAO EHGG (GRQ)
Name Eelde
Region Netherlands
Timezone Europe/Amsterdam (UTC+2.0)
Stats Elevation 17 ft / 5 m (AMSL)
Location 53.121033° 6.577073°
Runways 2
Magnetic Variation 1.754° E

METAR

EHGG 270355Z AUTO 08005KT 050V110 9999 NCD 15/12 Q1021

Decode

TAF

TAF EHGG 262241Z 2700/2806 08010KT CAVOK BECMG 2721/2724 11005KT

Decode

Destination Runways

ID Width Length Bearing (true) Bearing (mag) Surface Threshold Offset Overrun Length
01 148 ft / 45 m 4,918 ft / 1,499 m 8.73° 6.98° Asphalt 0 ft / 0 m 0 ft / 0 m
05 148 ft / 45 m 8,185 ft / 2,495 m 51.78° 50.03° Asphalt 0 ft / 0 m 98 ft / 30 m
19 148 ft / 45 m 4,918 ft / 1,499 m 188.74° 186.99° Asphalt 0 ft / 0 m 0 ft / 0 m
23 148 ft / 45 m 8,185 ft / 2,495 m 231.81° 230.06° Asphalt 0 ft / 0 m 98 ft / 30 m

Approach Navaids

Runway Type Ident Frequency Range Bearing (true) Bearing (mag) Slope Elevation
23 Localiser GRO 109.90 MHz 18 nm / 33 km 231.79° 230.04° - 17 ft / 5 m (AMSL)
23 Glidescope GRO 109.90 MHz 15 nm / 28 km 232.94° 231.19° 3.00° 17 ft / 5 m (AMSL)
23 DME GRO 109.90 MHz 18 nm / 33 km - - - 17 ft / 5 m (AMSL)

Popular Alternatives